Time;durP1;ratioP1;P1;durP2;ratioP2;P2;SDS_P1;SDS_P2;PMS_P1;PMS_P2;Temp;Humidity;BMP_temperature;BMP_pressure;BME280_temperature;BME280_humidity;BME280_pressure;Samples;Min_cycle;Max_cycle;Signal;HPM_P1;HPM_P2
2023/09/13 00:02:20;;;;;;;5.97;4.78;;;;;20.90;98400.00;;;;4915585;29;20087;-67
2023/09/13 00:04:47;;;;;;;4.60;4.03;;;;;21.00;98399.00;;;;4916183;29;20044;-67
2023/09/13 00:07:14;;;;;;;5.13;3.72;;;;;21.00;98399.00;;;;4916487;29;20548;-67
2023/09/13 00:09:41;;;;;;;7.97;4.40;;;;;21.00;98394.00;;;;4915734;29;20099;-66
2023/09/13 00:12:08;;;;;;;6.68;4.63;;;;;21.00;98387.00;;;;4915663;29;20048;-67
2023/09/13 00:14:35;;;;;;;6.45;3.95;;;;;20.90;98391.00;;;;4916320;29;20048;-68
2023/09/13 00:17:02;;;;;;;6.72;3.80;;;;;20.90;98392.00;;;;4916373;29;20100;-68
2023/09/13 00:19:30;;;;;;;6.50;4.60;;;;;20.80;98399.00;;;;4915864;29;20047;-67
2023/09/13 00:21:57;;;;;;;6.10;4.25;;;;;20.80;98390.00;;;;4915957;29;20052;-67
2023/09/13 00:24:24;;;;;;;8.18;4.18;;;;;20.80;98390.00;;;;4915616;29;20422;-68
2023/09/13 00:26:51;;;;;;;6.53;4.32;;;;;20.80;98386.00;;;;4917104;29;20162;-67
2023/09/13 00:29:17;;;;;;;5.68;4.57;;;;;20.80;98392.00;;;;4915594;29;20054;-67
2023/09/13 00:31:44;;;;;;;5.38;4.40;;;;;20.80;98403.00;;;;4915133;29;20059;-67
2023/09/13 00:34:11;;;;;;;6.50;4.82;;;;;20.80;98396.00;;;;4899146;29;20056;-68
2023/09/13 00:36:37;;;;;;;6.43;4.22;;;;;20.80;98403.00;;;;4899594;29;20138;-67
2023/09/13 00:39:05;;;;;;;8.65;4.05;;;;;20.80;98402.00;;;;4899442;29;20058;-68
2023/09/13 00:41:32;;;;;;;4.65;4.13;;;;;20.70;98398.00;;;;4915035;29;20063;-67
2023/09/13 00:43:59;;;;;;;5.10;3.72;;;;;20.70;98402.00;;;;4915631;29;20044;-67
2023/09/13 00:46:27;;;;;;;6.13;3.97;;;;;20.70;98400.00;;;;4916024;29;20044;-66
2023/09/13 00:48:55;;;;;;;8.57;4.32;;;;;20.70;98402.00;;;;4899319;29;20052;-67
2023/09/13 00:51:23;;;;;;;6.07;4.38;;;;;20.70;98401.00;;;;4898728;29;20115;-66
2023/09/13 00:53:50;;;;;;;4.25;3.72;;;;;20.70;98404.00;;;;4914397;29;20076;-67
2023/09/13 00:56:17;;;;;;;5.10;4.40;;;;;20.70;98407.00;;;;4914868;29;20615;-67
2023/09/13 00:58:44;;;;;;;8.55;3.85;;;;;20.70;98405.00;;;;4915017;29;20131;-67
2023/09/13 01:01:13;;;;;;;4.55;4.10;;;;;20.70;98400.00;;;;4914787;29;20094;-67
2023/09/13 01:03:42;;;;;;;6.85;4.00;;;;;20.70;98415.00;;;;4914397;29;20512;-67
2023/09/13 01:06:11;;;;;;;6.40;4.78;;;;;20.60;98424.00;;;;4914818;29;20477;-67
2023/09/13 01:08:42;;;;;;;5.78;4.60;;;;;20.60;98415.00;;;;4899124;29;20048;-67
2023/09/13 01:11:09;;;;;;;5.70;4.35;;;;;20.70;98422.00;;;;4898990;29;20754;-67
2023/09/13 01:13:36;;;;;;;6.75;4.40;;;;;20.80;98423.00;;;;4914005;29;20052;-66
2023/09/13 01:16:17;;;;;;;5.18;4.60;;;;;20.90;98419.00;;;;4898879;29;20059;-67
2023/09/13 01:19:05;;;;;;;5.38;4.70;;;;;20.90;98419.00;;;;4914730;29;20108;-67
2023/09/13 01:21:54;;;;;;;5.20;4.65;;;;;20.90;98427.00;;;;4914414;29;20055;-67
2023/09/13 01:24:45;;;;;;;6.13;4.20;;;;;20.90;98427.00;;;;4914081;29;20055;-68
2023/09/13 01:27:31;;;;;;;6.93;4.50;;;;;20.90;98426.00;;;;4899066;29;20112;-68
2023/09/13 01:30:00;;;;;;;6.60;4.57;;;;;20.90;98428.00;;;;4914854;29;20104;-68
2023/09/13 01:32:27;;;;;;;5.65;4.68;;;;;20.90;98423.00;;;;4915857;29;20048;-68
2023/09/13 01:34:53;;;;;;;6.40;4.80;;;;;20.90;98423.00;;;;4898270;29;20099;-68
2023/09/13 01:37:20;;;;;;;7.57;5.80;;;;;20.90;98423.00;;;;4914567;29;20101;-68
2023/09/13 01:39:47;;;;;;;6.97;5.97;;;;;20.90;98419.00;;;;4914503;29;20051;-68
2023/09/13 01:42:14;;;;;;;8.73;6.50;;;;;20.90;98431.00;;;;4898816;29;20131;-68
2023/09/13 01:44:43;;;;;;;7.60;6.43;;;;;20.90;98433.00;;;;4898114;29;20502;-68
2023/09/13 01:47:12;;;;;;;7.28;6.60;;;;;20.80;98436.00;;;;4914344;29;20532;-68
2023/09/13 01:49:42;;;;;;;7.15;6.45;;;;;20.80;98446.00;;;;4915987;29;20486;-68
2023/09/13 01:52:09;;;;;;;9.30;7.43;;;;;20.80;98430.00;;;;4914364;29;20044;-68
2023/09/13 01:54:36;;;;;;;8.15;6.95;;;;;20.80;98435.00;;;;4913942;29;20080;-68
2023/09/13 01:57:03;;;;;;;8.63;7.82;;;;;20.70;98429.00;;;;4914476;29;20048;-68
2023/09/13 01:59:32;;;;;;;10.77;7.80;;;;;20.70;98432.00;;;;4914442;29;20413;-68
2023/09/13 02:01:58;;;;;;;10.93;7.63;;;;;20.70;98433.00;;;;4914539;29;20099;-68
2023/09/13 02:04:31;;;;;;;9.05;8.18;;;;;20.70;98439.00;;;;4918722;29;20107;-68
2023/09/13 02:07:00;;;;;;;9.80;8.80;;;;;20.70;98446.00;;;;4918549;29;20044;-69
2023/09/13 02:09:27;;;;;;;11.25;9.98;;;;;20.70;98436.00;;;;4918457;29;20284;-69
2023/09/13 02:11:53;;;;;;;9.45;8.55;;;;;20.70;98445.00;;;;4919295;29;20078;-68
2023/09/13 02:14:20;;;;;;;11.65;9.50;;;;;20.70;98440.00;;;;4901947;29;20103;-69
2023/09/13 02:16:47;;;;;;;10.18;8.88;;;;;20.70;98446.00;;;;4918160;29;20056;-69
2023/09/13 02:19:15;;;;;;;11.23;9.60;;;;;20.70;98441.00;;;;4901999;29;20064;-69
2023/09/13 02:21:42;;;;;;;10.80;9.27;;;;;20.80;98440.00;;;;4917574;29;20040;-69
2023/09/13 02:24:08;;;;;;;11.65;9.43;;;;;20.80;98442.00;;;;4901029;29;20052;-69
2023/09/13 02:26:37;;;;;;;10.52;9.43;;;;;20.80;98435.00;;;;4917523;29;20044;-68
2023/09/13 02:29:03;;;;;;;10.18;8.73;;;;;20.80;98442.00;;;;4917385;29;20641;-68
2023/09/13 02:31:31;;;;;;;10.63;9.02;;;;;20.90;98440.00;;;;4901650;29;20058;-69
2023/09/13 02:33:58;;;;;;;10.27;9.27;;;;;20.80;98433.00;;;;4916783;29;20107;-69
2023/09/13 02:36:24;;;;;;;10.45;8.88;;;;;20.80;98440.00;;;;4918590;29;20119;-69
2023/09/13 02:38:52;;;;;;;9.20;7.85;;;;;20.90;98433.00;;;;4901455;29;20052;-69
2023/09/13 02:41:18;;;;;;;10.95;9.07;;;;;20.80;98428.00;;;;4901493;29;20084;-69
2023/09/13 02:43:45;;;;;;;9.50;8.60;;;;;20.80;98438.00;;;;4916627;29;20048;-69
2023/09/13 02:46:12;;;;;;;11.57;9.63;;;;;20.70;98432.00;;;;4918412;29;20509;-69
2023/09/13 02:48:39;;;;;;;10.30;9.30;;;;;20.70;98428.00;;;;4918351;29;20508;-68
2023/09/13 02:51:14;;;;;;;10.23;9.10;;;;;20.70;98427.00;;;;4917112;29;20119;-68
2023/09/13 02:53:41;;;;;;;11.30;10.07;;;;;20.60;98434.00;;;;4901189;29;20056;-68
2023/09/13 02:56:09;;;;;;;11.73;9.60;;;;;20.70;98436.00;;;;4917019;29;20489;-68
2023/09/13 02:58:37;;;;;;;12.25;9.55;;;;;20.60;98424.00;;;;4916780;29;20050;-68
2023/09/13 03:01:07;;;;;;;10.05;8.85;;;;;20.60;98432.00;;;;4916695;29;20051;-69
2023/09/13 03:03:34;;;;;;;13.60;9.77;;;;;20.60;98428.00;;;;4916137;29;20055;-69
2023/09/13 03:06:06;;;;;;;11.23;9.45;;;;;20.60;98442.00;;;;4901622;29;20056;-68
2023/09/13 03:08:32;;;;;;;10.98;9.88;;;;;20.60;98431.00;;;;4918590;29;20048;-68
2023/09/13 03:11:14;;;;;;;11.85;9.63;;;;;20.60;98441.00;;;;4916929;29;20047;-69
2023/09/13 03:13:41;;;;;;;10.20;9.02;;;;;20.60;98438.00;;;;4900452;29;20048;-69
2023/09/13 03:16:17;;;;;;;10.43;9.43;;;;;20.60;98447.00;;;;4916244;29;20417;-69
2023/09/13 03:18:45;;;;;;;10.32;9.27;;;;;20.70;98432.00;;;;4901240;29;20079;-69
2023/09/13 03:21:15;;;;;;;11.63;9.30;;;;;20.70;98438.00;;;;4917576;29;20047;-68
2023/09/13 03:23:44;;;;;;;10.13;9.02;;;;;20.70;98438.00;;;;4900720;29;20615;-67
2023/09/13 03:26:31;;;;;;;10.75;9.30;;;;;20.80;98436.00;;;;4901027;29;20057;-68
2023/09/13 03:28:58;;;;;;;10.15;8.95;;;;;20.70;98439.00;;;;4917348;29;20086;-68
2023/09/13 03:31:26;;;;;;;12.90;10.30;;;;;20.60;98430.00;;;;4902282;29;20063;-68
2023/09/13 03:33:57;;;;;;;11.70;9.98;;;;;20.60;98427.00;;;;4901766;29;20139;-68
2023/09/13 03:36:27;;;;;;;11.23;9.05;;;;;20.60;98430.00;;;;4918874;29;20052;-68
2023/09/13 03:38:56;;;;;;;10.85;9.30;;;;;20.60;98428.00;;;;4917869;29;20044;-69
2023/09/13 03:41:26;;;;;;;10.02;8.98;;;;;20.60;98422.00;;;;4901896;29;20568;-68
2023/09/13 03:43:53;;;;;;;12.68;10.45;;;;;20.50;98425.00;;;;4917415;29;20044;-68
2023/09/13 03:46:20;;;;;;;11.38;9.82;;;;;20.50;98422.00;;;;4901055;29;20059;-68
2023/09/13 03:48:51;;;;;;;10.38;9.38;;;;;20.40;98426.00;;;;4916645;29;20048;-68
2023/09/13 03:51:18;;;;;;;11.32;9.75;;;;;20.40;98424.00;;;;4901413;29;20527;-68
2023/09/13 03:53:45;;;;;;;11.07;9.40;;;;;20.40;98421.00;;;;4915558;29;20082;-68
2023/09/13 03:56:13;;;;;;;10.65;9.02;;;;;20.40;98424.00;;;;4915723;29;20048;-68
2023/09/13 03:58:40;;;;;;;12.38;9.07;;;;;20.40;98411.00;;;;4900115;29;20056;-69
2023/09/13 04:01:07;;;;;;;12.15;9.20;;;;;20.40;98418.00;;;;4917134;29;20044;-68
2023/09/13 04:03:34;;;;;;;9.10;8.20;;;;;20.40;98420.00;;;;4915173;29;20056;-68
2023/09/13 04:06:01;;;;;;;9.80;8.80;;;;;20.40;98419.00;;;;4915624;29;20044;-68
2023/09/13 04:08:28;;;;;;;10.90;9.45;;;;;20.40;98419.00;;;;4899847;29;20059;-67
2023/09/13 04:10:56;;;;;;;10.95;8.98;;;;;20.40;98422.00;;;;4916628;29;20059;-68
2023/09/13 04:13:22;;;;;;;10.50;9.02;;;;;20.40;98423.00;;;;4915733;29;20048;-68
2023/09/13 04:15:50;;;;;;;11.02;9.00;;;;;20.40;98424.00;;;;4915204;29;20051;-68
2023/09/13 04:18:17;;;;;;;10.40;8.18;;;;;20.40;98421.00;;;;4915626;29;20055;-69
2023/09/13 04:20:48;;;;;;;9.82;8.50;;;;;20.40;98424.00;;;;4915255;29;20392;-69
2023/09/13 04:23:15;;;;;;;10.20;9.10;;;;;20.50;98434.00;;;;4915490;29;20152;-68
2023/09/13 04:25:42;;;;;;;9.60;8.65;;;;;20.50;98427.00;;;;4913958;29;20052;-69
2023/09/13 04:28:11;;;;;;;9.55;7.70;;;;;20.60;98430.00;;;;4915088;29;20115;-69
2023/09/13 04:30:38;;;;;;;9.00;8.10;;;;;20.60;98435.00;;;;4899648;29;20047;-68
2023/09/13 04:33:06;;;;;;;8.85;7.65;;;;;20.60;98433.00;;;;4915147;29;20067;-68
2023/09/13 04:35:34;;;;;;;10.70;8.07;;;;;20.70;98447.00;;;;4914903;29;20058;-69
2023/09/13 04:38:00;;;;;;;8.13;7.32;;;;;20.70;98439.00;;;;4915632;29;20092;-68
2023/09/13 04:40:27;;;;;;;8.82;7.95;;;;;20.70;98435.00;;;;4900124;29;20048;-68
2023/09/13 04:43:06;;;;;;;8.43;7.57;;;;;20.70;98444.00;;;;4900055;29;20527;-68
2023/09/13 04:45:34;;;;;;;9.32;8.00;;;;;20.70;98443.00;;;;4899576;29;20135;-68
2023/09/13 04:48:02;;;;;;;12.77;9.27;;;;;20.70;98441.00;;;;4915256;29;20576;-69
2023/09/13 04:50:29;;;;;;;9.18;8.38;;;;;20.70;98448.00;;;;4899432;29;20509;-68
2023/09/13 04:52:55;;;;;;;9.45;8.45;;;;;20.70;98443.00;;;;4915327;29;20052;-68
2023/09/13 04:55:23;;;;;;;9.57;8.45;;;;;20.80;98451.00;;;;4914597;29;20453;-68
2023/09/13 04:57:51;;;;;;;10.77;9.00;;;;;20.80;98453.00;;;;4915088;29;20056;-68
2023/09/13 05:00:18;;;;;;;9.05;8.13;;;;;20.80;98446.00;;;;4914921;29;20048;-69
2023/09/13 05:02:45;;;;;;;9.60;7.85;;;;;20.80;98452.00;;;;4914966;29;20048;-69
2023/09/13 05:05:12;;;;;;;10.88;7.85;;;;;20.90;98450.00;;;;4915845;29;20095;-69
2023/09/13 05:07:38;;;;;;;11.45;8.00;;;;;20.90;98458.00;;;;4914995;29;20076;-69
2023/09/13 05:10:05;;;;;;;9.07;7.18;;;;;20.90;98450.00;;;;4915996;29;20100;-67
2023/09/13 05:12:32;;;;;;;11.48;7.95;;;;;20.90;98466.00;;;;4916920;29;20047;-67
2023/09/13 05:14:59;;;;;;;12.65;6.72;;;;;20.90;98466.00;;;;4914110;29;20076;-67
2023/09/13 05:17:28;;;;;;;8.88;7.78;;;;;20.80;98462.00;;;;4914731;29;20063;-67
2023/09/13 05:19:55;;;;;;;11.45;7.90;;;;;20.90;98472.00;;;;4915986;29;20050;-69
2023/09/13 05:22:21;;;;;;;9.82;7.70;;;;;20.90;98472.00;;;;4914846;29;20071;-68
2023/09/13 05:24:48;;;;;;;10.43;7.80;;;;;20.90;98470.00;;;;4914133;29;20510;-68
2023/09/13 05:27:15;;;;;;;9.82;8.27;;;;;20.80;98473.00;;;;4915727;29;20456;-68
2023/09/13 05:29:41;;;;;;;11.38;8.18;;;;;20.80;98467.00;;;;4914491;29;20055;-68
2023/09/13 05:32:08;;;;;;;11.02;8.52;;;;;20.90;98471.00;;;;4914164;29;20123;-68
2023/09/13 05:34:35;;;;;;;11.43;9.43;;;;;20.80;98477.00;;;;4915259;29;20598;-68
2023/09/13 05:37:02;;;;;;;10.80;9.05;;;;;20.80;98481.00;;;;4914994;29;20055;-68
2023/09/13 05:39:29;;;;;;;11.68;8.80;;;;;20.90;98482.00;;;;4918208;29;20577;-68
2023/09/13 05:41:55;;;;;;;9.98;8.98;;;;;20.90;98479.00;;;;4918285;29;20494;-68
2023/09/13 05:44:24;;;;;;;12.05;9.40;;;;;20.90;98482.00;;;;4901815;29;20387;-68
2023/09/13 05:46:54;;;;;;;9.95;8.60;;;;;20.90;98485.00;;;;4902635;29;20044;-68
2023/09/13 05:49:21;;;;;;;9.82;8.85;;;;;20.90;98490.00;;;;4918202;29;20096;-68
2023/09/13 05:51:49;;;;;;;13.07;9.57;;;;;20.90;98486.00;;;;4918181;29;20116;-68
2023/09/13 05:54:16;;;;;;;15.70;12.32;;;;;21.00;98488.00;;;;4901822;29;20064;-67
2023/09/13 05:56:43;;;;;;;12.73;9.38;;;;;21.00;98486.00;;;;4918038;29;20052;-67
2023/09/13 05:59:10;;;;;;;13.40;9.52;;;;;21.10;98480.00;;;;4902564;29;20060;-67
2023/09/13 06:01:37;;;;;;;12.32;9.07;;;;;21.10;98491.00;;;;4918153;29;20148;-67
2023/09/13 06:04:05;;;;;;;10.48;9.43;;;;;21.20;98492.00;;;;4902008;29;20044;-67
2023/09/13 06:06:34;;;;;;;11.80;9.60;;;;;21.10;98489.00;;;;4918248;29;20131;-67
2023/09/13 06:09:03;;;;;;;13.77;8.88;;;;;21.20;98494.00;;;;4918129;29;20473;-68
2023/09/13 06:11:31;;;;;;;10.05;8.63;;;;;21.20;98492.00;;;;4919267;29;20048;-68
2023/09/13 06:13:57;;;;;;;11.98;8.77;;;;;21.30;98493.00;;;;4901498;29;20048;-67
2023/09/13 06:16:25;;;;;;;11.77;8.65;;;;;21.30;98502.00;;;;4917888;29;20076;-67
2023/09/13 06:18:52;;;;;;;9.25;7.82;;;;;21.20;98501.00;;;;4918115;29;20079;-67
2023/09/13 06:21:18;;;;;;;9.10;8.20;;;;;21.20;98500.00;;;;4919081;29;20045;-69
2023/09/13 06:23:46;;;;;;;12.40;8.77;;;;;21.30;98496.00;;;;4917510;29;20071;-67
2023/09/13 06:26:13;;;;;;;12.82;9.50;;;;;21.30;98498.00;;;;4917555;29;20414;-68
2023/09/13 06:28:39;;;;;;;15.27;9.98;;;;;21.40;98502.00;;;;4918829;29;20123;-67
2023/09/13 06:31:07;;;;;;;17.02;10.88;;;;;21.50;98504.00;;;;4917481;29;20494;-67
2023/09/13 06:33:34;;;;;;;21.25;11.18;;;;;21.70;98506.00;;;;4916834;29;20569;-68
2023/09/13 06:36:04;;;;;;;21.50;10.85;;;;;21.80;98511.00;;;;4902095;29;20067;-66
2023/09/13 06:38:31;;;;;;;36.20;14.00;;;;;21.80;98512.00;;;;4917292;29;20052;-65
2023/09/13 06:40:58;;;;;;;15.13;9.30;;;;;21.90;98503.00;;;;4917681;29;20052;-66
2023/09/13 06:43:26;;;;;;;17.98;10.80;;;;;21.90;98502.00;;;;4918560;29;20054;-67
2023/09/13 06:46:12;;;;;;;21.20;12.10;;;;;22.10;98507.00;;;;4918672;29;20044;-66
2023/09/13 06:48:40;;;;;;;21.30;13.70;;;;;22.20;98510.00;;;;4917112;29;20044;-67
2023/09/13 06:51:08;;;;;;;12.30;9.40;;;;;22.20;98516.00;;;;4917317;29;20504;-67
2023/09/13 06:53:38;;;;;;;12.32;8.77;;;;;22.30;98523.00;;;;4901408;29;20134;-66
2023/09/13 06:56:08;;;;;;;9.43;7.53;;;;;22.50;98518.00;;;;4918312;29;20395;-66
2023/09/13 06:58:36;;;;;;;8.07;7.20;;;;;22.70;98526.00;;;;4918189;29;20044;-66
2023/09/13 07:01:07;;;;;;;9.55;6.78;;;;;22.80;98524.00;;;;4918438;29;20040;-67
2023/09/13 07:03:37;;;;;;;9.10;6.82;;;;;22.80;98529.00;;;;4901203;29;20135;-67
2023/09/13 07:06:07;;;;;;;23.63;7.30;;;;;22.80;98524.00;;;;4916836;29;20100;-67
2023/09/13 07:08:34;;;;;;;10.18;7.95;;;;;22.90;98531.00;;;;4918110;29;20390;-67
2023/09/13 07:11:01;;;;;;;6.85;6.13;;;;;23.10;98531.00;;;;4916882;29;20040;-66
2023/09/13 07:13:28;;;;;;;7.65;6.00;;;;;23.20;98538.00;;;;4917743;29;20051;-66
2023/09/13 07:15:55;;;;;;;8.20;5.88;;;;;23.40;98530.00;;;;4917907;29;20052;-66
2023/09/13 07:18:23;;;;;;;6.53;5.93;;;;;23.50;98534.00;;;;4918222;29;20051;-66
2023/09/13 07:20:50;;;;;;;6.32;5.28;;;;;23.50;98538.00;;;;4918076;29;20044;-66
2023/09/13 07:23:16;;;;;;;6.18;4.65;;;;;23.60;98537.00;;;;4917841;29;20048;-66
2023/09/13 07:25:48;;;;;;;8.27;4.47;;;;;23.60;98539.00;;;;4917288;29;20044;-65
2023/09/13 07:28:15;;;;;;;6.10;4.28;;;;;23.60;98541.00;;;;4917017;29;20040;-66
2023/09/13 07:30:42;;;;;;;4.93;4.22;;;;;23.70;98542.00;;;;4917815;29;20144;-65
2023/09/13 07:33:08;;;;;;;7.00;4.57;;;;;23.80;98544.00;;;;4917844;29;20055;-66
2023/09/13 07:35:35;;;;;;;4.28;3.78;;;;;23.80;98554.00;;;;4915907;29;20083;-65
2023/09/13 07:38:02;;;;;;;7.35;4.35;;;;;23.80;98552.00;;;;4916914;29;20569;-65
2023/09/13 07:40:29;;;;;;;4.32;3.92;;;;;23.70;98561.00;;;;4917866;29;20047;-65
2023/09/13 07:42:56;;;;;;;4.97;4.35;;;;;23.50;98563.00;;;;4916332;29;20052;-65
2023/09/13 07:45:22;;;;;;;7.78;4.10;;;;;23.30;98564.00;;;;4916760;29;20052;-65
2023/09/13 07:47:50;;;;;;;5.30;4.43;;;;;23.20;98587.00;;;;4917079;29;20127;-66
2023/09/13 07:50:33;;;;;;;6.03;4.90;;;;;23.00;98580.00;;;;4916160;29;20458;-65
2023/09/13 07:53:00;;;;;;;7.07;5.22;;;;;22.80;98587.00;;;;4916945;29;20052;-68
2023/09/13 07:55:31;;;;;;;7.40;4.65;;;;;22.70;98589.00;;;;4916636;29;20048;-64
2023/09/13 07:57:59;;;;;;;6.13;4.97;;;;;22.70;98597.00;;;;4917378;29;20429;-65
2023/09/13 08:00:25;;;;;;;7.38;4.82;;;;;22.70;98599.00;;;;4915820;29;20635;-65
2023/09/13 08:02:52;;;;;;;5.45;4.60;;;;;22.70;98605.00;;;;4917095;29;20603;-65
2023/09/13 08:05:19;;;;;;;7.50;5.10;;;;;22.70;98600.00;;;;4916344;29;20044;-65
2023/09/13 08:07:46;;;;;;;7.57;5.18;;;;;22.70;98609.00;;;;4917109;29;20461;-63
2023/09/13 08:10:13;;;;;;;7.38;5.10;;;;;22.70;98604.00;;;;4915856;29;20422;-62
2023/09/13 08:12:40;;;;;;;6.45;4.97;;;;;22.80;98605.00;;;;4916809;29;20082;-62
2023/09/13 08:15:07;;;;;;;6.32;4.97;;;;;22.90;98609.00;;;;4914735;29;20103;-62
2023/09/13 08:17:34;;;;;;;5.80;5.20;;;;;23.00;98612.00;;;;4916650;29;20044;-63
2023/09/13 08:20:04;;;;;;;6.70;5.18;;;;;23.00;98609.00;;;;4916588;29;20044;-63
2023/09/13 08:22:31;;;;;;;5.97;5.07;;;;;23.10;98613.00;;;;4916475;29;20481;-63
2023/09/13 08:25:07;;;;;;;7.05;5.57;;;;;23.10;98623.00;;;;4915186;29;20143;-62
2023/09/13 08:27:38;;;;;;;9.82;6.05;;;;;23.10;98630.00;;;;4916677;29;20048;-63
2023/09/13 08:30:05;;;;;;;8.43;5.43;;;;;23.10;98629.00;;;;4915260;29;20051;-63
2023/09/13 08:32:32;;;;;;;16.50;6.38;;;;;23.20;98644.00;;;;4916474;29;20052;-63
2023/09/13 08:34:58;;;;;;;11.52;6.00;;;;;23.20;98634.00;;;;4915818;29;20139;-63
2023/09/13 08:37:25;;;;;;;15.00;7.18;;;;;23.20;98634.00;;;;4915222;29;20052;-63
2023/09/13 08:39:56;;;;;;;15.13;6.60;;;;;23.30;98633.00;;;;4915206;29;20111;-63
2023/09/13 08:42:24;;;;;;;18.83;7.85;;;;;23.50;98629.00;;;;4916359;29;20047;-62
2023/09/13 08:44:52;;;;;;;4.75;4.30;;;;;23.60;98642.00;;;;4915699;29;20067;-62
2023/09/13 08:47:21;;;;;;;12.65;6.97;;;;;23.90;98641.00;;;;4916528;29;20125;-63
2023/09/13 08:49:51;;;;;;;12.77;6.45;;;;;24.00;98645.00;;;;4915209;29;20152;-63
2023/09/13 08:52:19;;;;;;;12.40;5.93;;;;;24.10;98648.00;;;;4916413;29;20044;-63
2023/09/13 08:54:49;;;;;;;7.07;5.13;;;;;24.00;98649.00;;;;4915725;29;20050;-63
2023/09/13 08:57:26;;;;;;;9.10;5.93;;;;;24.00;98643.00;;;;4916410;29;20502;-63
2023/09/13 08:59:53;;;;;;;7.03;4.57;;;;;24.10;98646.00;;;;4915860;29;20059;-64
2023/09/13 09:02:23;;;;;;;5.22;4.40;;;;;24.10;98638.00;;;;4917652;29;20565;-64
2023/09/13 09:04:51;;;;;;;8.90;4.38;;;;;24.20;98636.00;;;;4916838;29;20044;-63
2023/09/13 09:07:19;;;;;;;5.65;4.40;;;;;24.40;98639.00;;;;4915657;29;20056;-63
2023/09/13 09:09:47;;;;;;;7.40;4.90;;;;;24.50;98646.00;;;;4915738;29;20075;-63
2023/09/13 09:12:17;;;;;;;9.45;4.70;;;;;24.60;98646.00;;;;4914944;29;20104;-64
2023/09/13 09:14:46;;;;;;;10.15;5.25;;;;;24.70;98645.00;;;;4916716;29;20040;-64
2023/09/13 09:17:16;;;;;;;10.57;5.57;;;;;24.60;98656.00;;;;4915387;29;20115;-63
2023/09/13 09:19:44;;;;;;;10.77;6.20;;;;;24.60;98654.00;;;;4915700;29;20517;-64
2023/09/13 09:22:11;;;;;;;9.32;5.10;;;;;24.50;98656.00;;;;4915002;29;20510;-63
2023/09/13 09:24:39;;;;;;;14.63;7.43;;;;;24.50;98653.00;;;;4915310;29;20131;-65
2023/09/13 09:27:06;;;;;;;9.43;5.18;;;;;24.60;98648.00;;;;4915285;29;20417;-65
2023/09/13 09:29:36;;;;;;;8.23;4.68;;;;;24.70;98646.00;;;;4916223;29;20081;-65
2023/09/13 09:32:07;;;;;;;8.13;5.10;;;;;24.80;98654.00;;;;4916451;29;20044;-65
2023/09/13 09:34:39;;;;;;;6.78;4.40;;;;;24.80;98666.00;;;;4898574;29;20052;-66
2023/09/13 09:37:08;;;;;;;5.53;4.95;;;;;24.90;98661.00;;;;4916072;29;20349;-66
2023/09/13 09:39:42;;;;;;;6.18;4.25;;;;;24.70;98663.00;;;;4914611;29;20048;-66
2023/09/13 09:42:15;;;;;;;6.13;3.72;;;;;24.50;98666.00;;;;4914781;29;20079;-66
2023/09/13 09:44:42;;;;;;;4.45;3.97;;;;;24.40;98665.00;;;;4913928;29;20056;-66
2023/09/13 09:47:13;;;;;;;4.85;3.95;;;;;24.40;98660.00;;;;4915545;29;20056;-66
2023/09/13 09:49:41;;;;;;;5.07;3.83;;;;;24.60;98661.00;;;;4914243;29;20544;-66
2023/09/13 09:52:08;;;;;;;4.25;3.85;;;;;24.80;98668.00;;;;4915378;29;20387;-66
2023/09/13 09:54:36;;;;;;;4.65;4.15;;;;;25.00;98672.00;;;;4913581;29;20059;-67
2023/09/13 09:57:04;;;;;;;4.43;3.85;;;;;25.00;98665.00;;;;4914410;29;20052;-66
2023/09/13 09:59:32;;;;;;;7.50;4.72;;;;;25.00;98672.00;;;;4915743;29;20050;-66
2023/09/13 10:02:01;;;;;;;6.28;4.78;;;;;24.90;98670.00;;;;4914562;29;20048;-66
2023/09/13 10:04:28;;;;;;;6.70;4.30;;;;;25.00;98671.00;;;;4915123;29;20052;-67
2023/09/13 10:07:00;;;;;;;7.47;4.78;;;;;25.20;98671.00;;;;4898849;29;20095;-66
2023/09/13 10:09:41;;;;;;;7.13;5.25;;;;;25.30;98678.00;;;;4915545;29;20490;-66
2023/09/13 10:12:09;;;;;;;7.47;5.45;;;;;25.50;98683.00;;;;4914214;29;20054;-64
2023/09/13 10:14:38;;;;;;;7.03;5.07;;;;;25.50;98683.00;;;;4914891;29;20052;-65
2023/09/13 10:17:06;;;;;;;9.48;6.00;;;;;25.60;98686.00;;;;4914856;29;20127;-67
2023/09/13 10:19:34;;;;;;;7.45;4.53;;;;;25.60;98680.00;;;;4915430;29;20044;-68
2023/09/13 10:22:02;;;;;;;6.65;4.13;;;;;25.70;98684.00;;;;4914307;29;20493;-67
2023/09/13 10:24:38;;;;;;;8.70;4.97;;;;;25.80;98681.00;;;;4914391;29;20052;-66
2023/09/13 10:27:10;;;;;;;8.52;4.45;;;;;25.80;98691.00;;;;4917617;29;20080;-65
2023/09/13 10:30:02;;;;;;;10.27;5.07;;;;;26.00;98690.00;;;;4917507;29;20151;-64
2023/09/13 10:32:42;;;;;;;6.22;4.63;;;;;26.00;98692.00;;;;4918682;29;20050;-63
2023/09/13 10:35:11;;;;;;;7.50;4.85;;;;;25.90;98696.00;;;;4918040;29;20052;-63
2023/09/13 10:37:41;;;;;;;10.50;4.38;;;;;25.90;98694.00;;;;4917425;29;20150;-63
2023/09/13 10:40:21;;;;;;;4.68;3.83;;;;;25.90;98699.00;;;;4901514;29;20782;-64
2023/09/13 10:42:48;;;;;;;6.80;4.25;;;;;25.90;98699.00;;;;4918573;29;20050;-64
2023/09/13 10:45:19;;;;;;;5.47;4.13;;;;;25.80;98698.00;;;;4917499;29;20135;-64
2023/09/13 10:47:49;;;;;;;6.20;4.63;;;;;25.90;98693.00;;;;4918410;29;20481;-65
2023/09/13 10:50:17;;;;;;;5.72;4.25;;;;;25.70;98689.00;;;;4917139;29;20520;-64
2023/09/13 10:52:44;;;;;;;7.85;5.47;;;;;25.70;98695.00;;;;4918348;29;20131;-65
2023/09/13 10:55:13;;;;;;;6.78;4.35;;;;;25.70;98693.00;;;;4916205;29;20478;-64
2023/09/13 10:57:40;;;;;;;10.60;6.40;;;;;25.70;98700.00;;;;4918342;29;20123;-65
2023/09/13 11:00:11;;;;;;;8.45;4.90;;;;;25.70;98698.00;;;;4917051;29;20072;-64
2023/09/13 11:02:39;;;;;;;9.90;4.13;;;;;25.70;98706.00;;;;4916999;29;20044;-65
2023/09/13 11:05:07;;;;;;;5.00;4.28;;;;;25.70;98715.00;;;;4917317;29;20048;-64
2023/09/13 11:07:40;;;;;;;7.32;4.28;;;;;25.80;98711.00;;;;4917957;29;20067;-65
2023/09/13 11:10:15;;;;;;;4.50;4.10;;;;;25.90;98709.00;;;;4918172;29;20044;-67
2023/09/13 11:12:48;;;;;;;9.02;5.68;;;;;25.90;98702.00;;;;4918406;29;20132;-68
2023/09/13 11:15:21;;;;;;;14.35;4.57;;;;;26.10;98704.00;;;;4917356;29;20052;-68
2023/09/13 11:17:49;;;;;;;7.73;6.10;;;;;26.20;98701.00;;;;4920438;29;20590;-67
2023/09/13 11:20:24;;;;;;;6.80;4.38;;;;;26.20;98707.00;;;;4919280;29;20292;-67
2023/09/13 11:23:10;;;;;;;7.90;3.53;;;;;26.40;98697.00;;;;4902505;29;20051;-67
2023/09/13 11:26:02;;;;;;;4.50;4.10;;;;;26.50;98705.00;;;;4918670;29;20493;-67
2023/09/13 11:28:36;;;;;;;4.40;4.00;;;;;26.60;98704.00;;;;4917823;29;20111;-67
2023/09/13 11:31:06;;;;;;;6.50;3.80;;;;;26.60;98708.00;;;;4916509;29;20557;-67
2023/09/13 11:33:51;;;;;;;5.25;4.38;;;;;26.70;98713.00;;;;4916306;29;20409;-67
2023/09/13 11:36:18;;;;;;;8.73;5.05;;;;;26.70;98712.00;;;;4917179;29;20048;-67
2023/09/13 11:38:49;;;;;;;7.18;4.68;;;;;26.80;98714.00;;;;4917519;29;20048;-67
2023/09/13 11:41:19;;;;;;;6.93;4.80;;;;;26.80;98711.00;;;;4916353;29;20472;-67
2023/09/13 11:43:48;;;;;;;7.53;4.57;;;;;26.80;98711.00;;;;4915667;29;20056;-68
2023/09/13 11:46:28;;;;;;;5.65;3.65;;;;;27.00;98715.00;;;;4917328;29;20076;-67
2023/09/13 11:48:57;;;;;;;4.90;4.05;;;;;27.00;98724.00;;;;4917613;29;20058;-67
2023/09/13 11:51:31;;;;;;;10.40;7.22;;;;;26.80;98719.00;;;;4917744;29;20096;-67
2023/09/13 11:54:18;;;;;;;9.80;5.38;;;;;26.60;98724.00;;;;4916583;29;20462;-67
2023/09/13 11:56:49;;;;;;;12.68;5.38;;;;;26.20;98724.00;;;;4915855;29;20051;-66
2023/09/13 11:59:16;;;;;;;9.85;5.28;;;;;26.00;98725.00;;;;4917235;29;20103;-67
2023/09/13 12:01:48;;;;;;;7.47;4.05;;;;;25.90;98723.00;;;;4917064;29;20062;-67
2023/09/13 12:04:22;;;;;;;6.28;4.22;;;;;25.90;98723.00;;;;4916617;29;20044;-66
2023/09/13 12:07:09;;;;;;;9.60;4.22;;;;;26.00;98711.00;;;;4902824;29;20051;-66
2023/09/13 12:09:38;;;;;;;7.35;3.17;;;;;26.20;98716.00;;;;4916030;29;20099;-66
2023/09/13 12:12:08;;;;;;;8.15;4.90;;;;;26.20;98714.00;;;;4900471;29;20198;-66
2023/09/13 12:14:38;;;;;;;9.60;4.77;;;;;26.20;98716.00;;;;4916523;29;20107;-66
2023/09/13 12:17:36;;;;;;;8.82;4.78;;;;;26.30;98716.00;;;;4929235;29;20048;-66
2023/09/13 12:20:08;;;;;;;12.07;7.22;;;;;26.40;98719.00;;;;4915874;29;20556;-66
2023/09/13 12:22:39;;;;;;;5.55;3.70;;;;;26.30;98725.00;;;;4916875;29;20500;-67
2023/09/13 12:25:10;;;;;;;7.60;3.58;;;;;26.40;98715.00;;;;4914633;29;20080;-66